Kezdőlap
METAR-TAF:

METAR-TAF

Repülőterek :

Window Rock Airport

Window Rock, Arizona, Amerikai Egyesült Államok

földrajzi szélesség: 35-39N, földrajzi hosszúság: 109-04W, magasság: 2055 m

Jelenlegi meteorológiai megfigyelések

A jelentés 1 órával és 1 perccel ezelõtt készült, 03:53 UTC
Dél-délnyugati szél 4 kt
Hőmérséklet 14°C
Páratartalom 28%
Légköri nyomás 1020 hPa
Látótávolság: 16.1 km
Derült ég

METAR: KRQE 190353Z AUTO 20004KT 10SM CLR 14/M04 A3012 RMK AO2 SLP094 T01441044

Idő: 21:54 (04:54 UTC)


TAF: hiányzik

Meteorológiai megfigyelések és előrejelzések több, mint 4000 repülőtéren (METAR és TAF jelentéseket).

A térképen piros és sárga pontok jelzik az elérhető meteorológiai állomásokat.

Mozgassa az egeret a pont fölött, hogy megjelenjen az állomás neve.

Azután kattintson az időjárási megfigyelések és előrejelzések megtekintéséhez.

A térkép megváltoztatása: kattintson a fekete keresztel jelölt zöld gombra ráközelítéshez, a vonallal jelölt zöld gombra távolításhoz, vagy a zöld nyilakra a szomszédos térképek eléréséhez.


METAR-TAF: